»·PEaware :: N298MC KWHP-KCNO

N298MC :: KWHP-KCNO

FLIGHT INFORMATION

Flight Status: Arrived
Operator: Privately registered:
United States
More flights under this callsign
Pilot: Lawrence K. (5124)
Aircraft: CESSNA 172 SKYHAWK
(C172)
More flights by this aircraft type
Origin: KWHP Whiteman
United States
Destination: KCNO Chino
United States
More flights between these airports :: More routes between these airports
Route: VNY V186 PDZ
File this flight plan on PilotEdge
Remarks: Request VOR 26R
Altitude:
(Current/Filed)
5,000ft
Speed:
(Current/Filed)
110kts
Departed: 22-Jan-18 03:26 PM
Arrived: 22-Jan-18 04:12 PM
Distance/Time
Traveled:
42nm/0:46
Distance/Time
To Go:
Arrived

Flight Plot

Page will automatically refresh every two minutes.

Flight plan parsing failed; only flown route is shown


Map Options




Map Legend


Flown Route
Filed Route
Departure Airport
Arrival Airport
Navaid (VOR, NDB)
Fix

Horizontal Profiles

Position Reports

Time Latitude Longitude Heading Altitude Ground
Speed
22-Jan-18 15:09 34.260548 -118.413422 261 1006ft 0kts
22-Jan-18 15:10 34.260548 -118.413422 261 1006ft 0kts
22-Jan-18 15:11 34.260548 -118.413423 261 1006ft 0kts
22-Jan-18 15:12 34.260548 -118.413423 261 1006ft 0kts
22-Jan-18 15:13 34.260548 -118.413423 261 1006ft 0kts
22-Jan-18 15:14 34.260548 -118.413424 261 1006ft 0kts
22-Jan-18 15:15 34.260548 -118.413424 261 1006ft 0kts
22-Jan-18 15:16 34.260548 -118.413424 261 1006ft 0kts
22-Jan-18 15:17 34.260548 -118.413425 261 1006ft 0kts
22-Jan-18 15:18 34.260548 -118.413425 261 1006ft 0kts
22-Jan-18 15:19 34.260548 -118.413426 261 1006ft 0kts
22-Jan-18 15:20 34.260548 -118.413426 261 1006ft 0kts
22-Jan-18 15:21 34.260548 -118.413426 261 1006ft 0kts
22-Jan-18 15:22 34.260548 -118.413427 261 1006ft 0kts
22-Jan-18 15:23 34.260548 -118.413427 261 1006ft 0kts
22-Jan-18 15:24 34.260547 -118.413427 261 1006ft 0kts
22-Jan-18 15:25 34.260547 -118.413428 261 1006ft 0kts
22-Jan-18 15:26 34.257792 -118.410922 144 1006ft 14kts
22-Jan-18 15:27 34.255572 -118.408345 248 1006ft 0kts
22-Jan-18 15:28 34.255572 -118.408345 248 1006ft 0kts
22-Jan-18 15:29 34.255572 -118.408346 248 1006ft 0kts
22-Jan-18 15:30 34.255572 -118.408346 248 1006ft 0kts
22-Jan-18 15:31 34.255506 -118.408533 243 1006ft 10kts
22-Jan-18 15:32 34.265372 -118.421329 301 1234ft 84kts
22-Jan-18 15:33 34.268343 -118.448509 273 2040ft 82kts
22-Jan-18 15:34 34.270262 -118.475415 271 2801ft 83kts
22-Jan-18 15:35 34.271078 -118.502258 268 3528ft 80kts
22-Jan-18 15:36 34.252408 -118.517459 189 4202ft 73kts
22-Jan-18 15:37 34.227277 -118.520470 187 4556ft 102kts
22-Jan-18 15:38 34.203795 -118.498716 133 4802ft 105kts
22-Jan-18 15:39 34.182442 -118.472624 133 5000ft 112kts
22-Jan-18 15:40 34.161462 -118.447105 133 4997ft 104kts
22-Jan-18 15:41 34.141134 -118.422406 133 5000ft 103kts
22-Jan-18 15:42 34.133177 -118.391140 92 5002ft 101kts
22-Jan-18 15:43 34.130066 -118.357371 98 5003ft 100kts
22-Jan-18 15:44 34.129791 -118.324919 92 5002ft 94kts
22-Jan-18 15:45 34.129190 -118.293461 92 4999ft 93kts
22-Jan-18 15:46 34.128057 -118.261805 92 5015ft 101kts
22-Jan-18 15:47 34.126193 -118.224686 95 5002ft 115kts
22-Jan-18 15:48 34.125586 -118.186287 85 5001ft 116kts
22-Jan-18 15:49 34.124067 -118.147324 101 5000ft 116kts
22-Jan-18 15:50 34.113539 -118.107424 108 4930ft 138kts
22-Jan-18 15:51 34.112507 -118.068064 82 4999ft 114kts
22-Jan-18 15:52 34.112584 -118.030044 100 5000ft 113kts
22-Jan-18 15:53 34.094517 -118.001252 143 5001ft 113kts
22-Jan-18 15:54 34.069812 -117.976650 142 5000ft 117kts
22-Jan-18 15:55 34.063316 -117.945113 54 5014ft 121kts
22-Jan-18 15:56 34.059397 -117.906015 102 5003ft 123kts
22-Jan-18 15:57 34.047911 -117.867144 111 4999ft 122kts
22-Jan-18 15:58 34.034180 -117.829557 111 4999ft 122kts
22-Jan-18 15:59 34.020236 -117.791960 112 4999ft 122kts
22-Jan-18 16:00 34.006325 -117.754540 112 4999ft 122kts
22-Jan-18 16:01 33.991777 -117.717434 113 5000ft 122kts
22-Jan-18 16:02 33.979617 -117.679278 107 5000ft 122kts
22-Jan-18 16:03 33.963011 -117.643572 120 5000ft 123kts
22-Jan-18 16:04 33.951278 -117.605418 110 5000ft 123kts
22-Jan-18 16:05 33.936745 -117.567923 114 4999ft 123kts
22-Jan-18 16:06 33.920536 -117.531507 118 5000ft 123kts
22-Jan-18 16:07 33.932146 -117.492986 58 4598ft 124kts
22-Jan-18 16:08 33.945955 -117.462867 58 4588ft 90kts
22-Jan-18 16:09 33.949566 -117.433698 96 4603ft 96kts
22-Jan-18 16:10 33.934399 -117.409993 210 4610ft 125kts
22-Jan-18 16:11 33.936030 -117.446293 299 4517ft 99kts
22-Jan-18 16:12 33.949797 -117.476049 299 3964ft 103kts
22-Jan-18 16:13 33.962337 -117.506914 292 3258ft 101kts
22-Jan-18 16:14 33.973150 -117.538196 284 2472ft 97kts
22-Jan-18 16:15 33.976844 -117.568618 268 1880ft 91kts
22-Jan-18 16:16 33.976298 -117.597680 264 1544ft 80kts
22-Jan-18 16:17 33.975906 -117.622550 268 1052ft 68kts
22-Jan-18 16:18 33.975738 -117.642016 275 655ft 29kts
22-Jan-18 16:19 33.976689 -117.642964 0 655ft 18kts
22-Jan-18 16:20 33.978354 -117.639276 358 655ft 17kts

Navigation Log

Ident Type
Flight plan parsing failed, navigation log unavailable